Roosevelt, Washington
Current Conditions -  °F | °C
As of 5:53 AM on Thursday 23 Oct 2014 (Local Time) from KHRI Reporting Station
Overcast Overcast  
Wind Chill: 55°   Ceiling: 7000
Heat Index: 55°   Visibility: 10mi
Dew Point: 53°   Wind: 7mph
Humidity: 93%   Direction: 140°SE
Pressure: 29.78"   Gusts: NA
Location:  45.74°N, 120.21°W
Report Text: KHRI 231253Z AUTO 14006KT 10SM OVC070 13/12 A2978 RMK AO2 RAB1154E25 SLP080 P0001 T01280117
Loading
Personal Weather Stations






























Interactive Weather Map New forecast layout! Learn more

10-Day Weather Forecast

Advertisements
Track Severe Weather on mobile